sensor_id;sensor_type;location;lat;lon;timestamp;pressure;altitude;pressure_sealevel;temperature;humidity
3132;BME280;62090;52.330;9.104;2023-05-07T00:02:05;101291.31;;;12.84;96.29
3132;BME280;62090;52.330;9.104;2023-05-07T00:04:38;101316.38;;;12.98;96.23
3132;BME280;62090;52.330;9.104;2023-05-07T00:07:08;101313.63;;;12.91;96.47
3132;BME280;62090;52.330;9.104;2023-05-07T00:09:37;101305.94;;;12.89;96.24
3132;BME280;62090;52.330;9.104;2023-05-07T00:12:07;101310.03;;;12.83;96.47
3132;BME280;62090;52.330;9.104;2023-05-07T00:14:37;101301.44;;;12.81;96.28
3132;BME280;62090;52.330;9.104;2023-05-07T00:17:07;101314.84;;;12.70;96.51
3132;BME280;62090;52.330;9.104;2023-05-07T00:19:39;101317.41;;;12.70;97.40
3132;BME280;62090;52.330;9.104;2023-05-07T00:22:09;101301.63;;;12.52;98.26
3132;BME280;62090;52.330;9.104;2023-05-07T00:24:39;101303.84;;;12.73;97.96
3132;BME280;62090;52.330;9.104;2023-05-07T00:27:09;101303.78;;;12.72;98.00
3132;BME280;62090;52.330;9.104;2023-05-07T00:29:39;101301.34;;;12.76;97.10
3132;BME280;62090;52.330;9.104;2023-05-07T00:32:09;101302.00;;;12.69;97.06
3132;BME280;62090;52.330;9.104;2023-05-07T00:34:42;101303.84;;;12.75;96.31
3132;BME280;62090;52.330;9.104;2023-05-07T00:37:12;101318.09;;;12.65;96.42
3132;BME280;62090;52.330;9.104;2023-05-07T00:39:41;101238.31;;;12.09;97.17
3132;BME280;62090;52.330;9.104;2023-05-07T00:42:11;101312.25;;;12.36;98.20
3132;BME280;62090;52.330;9.104;2023-05-07T00:44:42;101317.50;;;12.41;97.98
3132;BME280;62090;52.330;9.104;2023-05-07T00:47:12;101317.53;;;12.42;98.24
3132;BME280;62090;52.330;9.104;2023-05-07T00:49:45;101320.09;;;12.42;98.38
3132;BME280;62090;52.330;9.104;2023-05-07T00:52:16;101321.09;;;12.47;98.32
3132;BME280;62090;52.330;9.104;2023-05-07T00:54:47;101316.69;;;12.42;97.63
3132;BME280;62090;52.330;9.104;2023-05-07T00:57:17;101313.13;;;12.37;97.97
3132;BME280;62090;52.330;9.104;2023-05-07T00:59:48;101321.84;;;12.45;97.95
3132;BME280;62090;52.330;9.104;2023-05-07T01:02:18;101319.13;;;12.37;97.83
3132;BME280;62090;52.330;9.104;2023-05-07T01:04:50;101313.09;;;12.35;99.10
3132;BME280;62090;52.330;9.104;2023-05-07T01:07:21;101275.81;;;12.12;98.65
3132;BME280;62090;52.330;9.104;2023-05-07T01:09:52;101320.81;;;12.38;98.21
3132;BME280;62090;52.330;9.104;2023-05-07T01:12:22;101320.03;;;12.41;98.38
3132;BME280;62090;52.330;9.104;2023-05-07T01:14:52;101286.97;;;12.14;98.59
3132;BME280;62090;52.330;9.104;2023-05-07T01:17:22;101313.84;;;12.31;99.11
3132;BME280;62090;52.330;9.104;2023-05-07T01:19:55;101315.47;;;12.29;98.89
3132;BME280;62090;52.330;9.104;2023-05-07T01:22:32;101241.88;;;11.84;98.39
3132;BME280;62090;52.330;9.104;2023-05-07T01:25:04;101307.53;;;12.18;98.83
3132;BME280;62090;52.330;9.104;2023-05-07T01:27:38;101288.31;;;12.01;99.29
3132;BME280;62090;52.330;9.104;2023-05-07T01:30:09;101300.25;;;12.02;100.00
3132;BME280;62090;52.330;9.104;2023-05-07T01:32:43;101308.63;;;11.97;100.00
3132;BME280;62090;52.330;9.104;2023-05-07T01:35:18;101318.38;;;12.10;100.00
3132;BME280;62090;52.330;9.104;2023-05-07T01:37:52;101326.41;;;12.23;99.88
3132;BME280;62090;52.330;9.104;2023-05-07T01:40:23;101300.25;;;12.02;99.53
3132;BME280;62090;52.330;9.104;2023-05-07T01:42:54;101284.81;;;11.98;99.66
3132;BME280;62090;52.330;9.104;2023-05-07T01:45:24;101312.09;;;12.30;98.91
3132;BME280;62090;52.330;9.104;2023-05-07T01:47:55;101326.69;;;12.34;98.45
3132;BME280;62090;52.330;9.104;2023-05-07T01:50:25;101281.75;;;12.11;98.48
3132;BME280;62090;52.330;9.104;2023-05-07T01:52:58;101258.13;;;11.87;98.73
3132;BME280;62090;52.330;9.104;2023-05-07T01:55:28;101307.28;;;12.09;99.87
3132;BME280;62090;52.330;9.104;2023-05-07T01:57:58;101273.94;;;12.05;98.74
3132;BME280;62090;52.330;9.104;2023-05-07T02:00:28;101284.47;;;12.17;98.36
3132;BME280;62090;52.330;9.104;2023-05-07T02:02:58;101296.53;;;12.21;98.52
3132;BME280;62090;52.330;9.104;2023-05-07T02:05:41;101307.00;;;12.30;98.25
3132;BME280;62090;52.330;9.104;2023-05-07T02:08:21;101333.72;;;12.43;98.04
3132;BME280;62090;52.330;9.104;2023-05-07T02:10:51;101338.69;;;12.37;97.64
3132;BME280;62090;52.330;9.104;2023-05-07T02:13:21;101234.16;;;11.81;97.44
3132;BME280;62090;52.330;9.104;2023-05-07T02:15:51;101314.00;;;12.39;97.25
3132;BME280;62090;52.330;9.104;2023-05-07T02:18:23;101297.75;;;12.35;96.54
3132;BME280;62090;52.330;9.104;2023-05-07T02:20:53;101289.38;;;12.41;95.82
3132;BME280;62090;52.330;9.104;2023-05-07T02:23:26;101338.28;;;12.54;96.48
3132;BME280;62090;52.330;9.104;2023-05-07T02:25:56;101175.47;;;11.53;96.81
3132;BME280;62090;52.330;9.104;2023-05-07T02:28:26;101309.59;;;12.33;96.73
3132;BME280;62090;52.330;9.104;2023-05-07T02:30:59;101290.16;;;12.05;97.36
3132;BME280;62090;52.330;9.104;2023-05-07T02:33:29;101299.63;;;12.11;97.81
3132;BME280;62090;52.330;9.104;2023-05-07T02:36:06;101347.69;;;12.24;98.86
3132;BME280;62090;52.330;9.104;2023-05-07T02:38:44;101309.16;;;12.16;99.43
3132;BME280;62090;52.330;9.104;2023-05-07T02:41:14;101341.03;;;12.29;98.98
3132;BME280;62090;52.330;9.104;2023-05-07T02:43:44;101343.53;;;12.27;98.81
3132;BME280;62090;52.330;9.104;2023-05-07T02:46:14;101349.50;;;12.26;98.87
3132;BME280;62090;52.330;9.104;2023-05-07T02:48:48;101299.44;;;12.03;98.29
3132;BME280;62090;52.330;9.104;2023-05-07T02:51:21;101344.84;;;12.45;97.78
3132;BME280;62090;52.330;9.104;2023-05-07T02:53:56;101367.16;;;12.50;97.32
3132;BME280;62090;52.330;9.104;2023-05-07T02:56:28;101355.00;;;12.42;97.71
3132;BME280;62090;52.330;9.104;2023-05-07T02:58:58;101340.16;;;12.28;98.15
3132;BME280;62090;52.330;9.104;2023-05-07T03:01:32;101348.22;;;12.44;97.91
3132;BME280;62090;52.330;9.104;2023-05-07T03:04:05;101329.34;;;12.39;97.67
3132;BME280;62090;52.330;9.104;2023-05-07T03:06:35;101336.47;;;12.50;97.79
3132;BME280;62090;52.330;9.104;2023-05-07T03:09:07;101310.59;;;12.38;97.46
3132;BME280;62090;52.330;9.104;2023-05-07T03:11:38;101311.94;;;12.24;97.13
3132;BME280;62090;52.330;9.104;2023-05-07T03:14:07;101238.56;;;11.87;97.02
3132;BME280;62090;52.330;9.104;2023-05-07T03:16:38;101338.75;;;12.40;97.49
3132;BME280;62090;52.330;9.104;2023-05-07T03:19:08;101332.53;;;12.30;97.94
3132;BME280;62090;52.330;9.104;2023-05-07T03:21:38;101304.78;;;12.12;97.93
3132;BME280;62090;52.330;9.104;2023-05-07T03:24:10;101155.25;;;11.29;97.94
3132;BME280;62090;52.330;9.104;2023-05-07T03:26:40;101298.34;;;12.25;98.06
3132;BME280;62090;52.330;9.104;2023-05-07T03:29:10;101320.97;;;12.44;97.03
3132;BME280;62090;52.330;9.104;2023-05-07T03:31:40;101317.28;;;12.33;97.45
3132;BME280;62090;52.330;9.104;2023-05-07T03:34:10;101312.91;;;12.29;97.49
3132;BME280;62090;52.330;9.104;2023-05-07T03:36:40;101301.78;;;12.27;97.36
3132;BME280;62090;52.330;9.104;2023-05-07T03:39:14;101266.00;;;11.94;97.94
3132;BME280;62090;52.330;9.104;2023-05-07T03:41:44;101317.38;;;12.36;97.72
3132;BME280;62090;52.330;9.104;2023-05-07T03:44:14;101287.06;;;12.18;97.08
3132;BME280;62090;52.330;9.104;2023-05-07T03:46:44;101301.94;;;12.32;97.20
3132;BME280;62090;52.330;9.104;2023-05-07T03:49:14;101320.91;;;12.41;96.54
3132;BME280;62090;52.330;9.104;2023-05-07T03:51:43;101317.31;;;12.35;96.57
3132;BME280;62090;52.330;9.104;2023-05-07T03:54:16;101245.75;;;12.02;95.67
3132;BME280;62090;52.330;9.104;2023-05-07T03:56:46;101320.97;;;12.44;95.80
3132;BME280;62090;52.330;9.104;2023-05-07T03:59:16;101342.28;;;12.45;96.07
3132;BME280;62090;52.330;9.104;2023-05-07T04:01:47;101335.56;;;12.48;96.31
3132;BME280;62090;52.330;9.104;2023-05-07T04:04:19;101327.84;;;12.45;95.22
3132;BME280;62090;52.330;9.104;2023-05-07T04:06:49;101273.31;;;12.13;94.75
3132;BME280;62090;52.330;9.104;2023-05-07T04:09:23;101348.63;;;12.59;95.24
3132;BME280;62090;52.330;9.104;2023-05-07T04:11:55;101332.06;;;12.45;95.66
3132;BME280;62090;52.330;9.104;2023-05-07T04:14:25;101240.34;;;11.91;95.19
3132;BME280;62090;52.330;9.104;2023-05-07T04:16:55;101288.88;;;12.22;95.16
3132;BME280;62090;52.330;9.104;2023-05-07T04:19:26;101332.31;;;12.54;94.95
3132;BME280;62090;52.330;9.104;2023-05-07T04:21:56;101305.47;;;12.38;94.48
3132;BME280;62090;52.330;9.104;2023-05-07T04:24:31;101323.75;;;12.52;94.16
3132;BME280;62090;52.330;9.104;2023-05-07T04:27:02;101353.00;;;12.63;94.50
3132;BME280;62090;52.330;9.104;2023-05-07T04:29:33;101357.22;;;12.61;94.73
3132;BME280;62090;52.330;9.104;2023-05-07T04:32:04;101229.03;;;11.81;94.44
3132;BME280;62090;52.330;9.104;2023-05-07T04:34:34;101348.59;;;12.57;94.45
3132;BME280;62090;52.330;9.104;2023-05-07T04:37:04;101349.22;;;12.49;94.26
3132;BME280;62090;52.330;9.104;2023-05-07T04:39:36;101330.22;;;12.39;94.24
3132;BME280;62090;52.330;9.104;2023-05-07T04:42:07;101324.78;;;12.27;93.94
3132;BME280;62090;52.330;9.104;2023-05-07T04:44:37;101312.00;;;12.27;93.51
3132;BME280;62090;52.330;9.104;2023-05-07T04:47:07;101319.72;;;12.28;94.07
3132;BME280;62090;52.330;9.104;2023-05-07T04:49:37;101296.38;;;12.16;93.48
3132;BME280;62090;52.330;9.104;2023-05-07T04:52:09;101325.75;;;12.31;93.88
3132;BME280;62090;52.330;9.104;2023-05-07T04:54:42;101366.28;;;12.50;94.01
3132;BME280;62090;52.330;9.104;2023-05-07T04:57:11;101370.47;;;12.48;94.40
3132;BME280;62090;52.330;9.104;2023-05-07T04:59:41;101357.56;;;12.42;93.66
3132;BME280;62090;52.330;9.104;2023-05-07T05:02:11;101336.13;;;12.37;93.20
3132;BME280;62090;52.330;9.104;2023-05-07T05:04:41;101301.91;;;12.00;94.27
3132;BME280;62090;52.330;9.104;2023-05-07T05:07:12;101319.44;;;12.18;93.86
3132;BME280;62090;52.330;9.104;2023-05-07T05:09:44;101345.97;;;12.23;93.44
3132;BME280;62090;52.330;9.104;2023-05-07T05:12:14;101333.00;;;12.15;93.57
3132;BME280;62090;52.330;9.104;2023-05-07T05:14:44;101362.56;;;12.39;93.11
3132;BME280;62090;52.330;9.104;2023-05-07T05:17:15;101315.81;;;12.10;93.85
3132;BME280;62090;52.330;9.104;2023-05-07T05:19:45;101398.47;;;12.42;94.67
3132;BME280;62090;52.330;9.104;2023-05-07T05:22:15;101390.88;;;12.45;94.58
3132;BME280;62090;52.330;9.104;2023-05-07T05:24:48;101403.28;;;12.62;94.11
3132;BME280;62090;52.330;9.104;2023-05-07T05:27:18;101396.44;;;12.61;94.05
3132;BME280;62090;52.330;9.104;2023-05-07T05:29:48;101403.28;;;12.62;93.84
3132;BME280;62090;52.330;9.104;2023-05-07T05:32:18;101405.75;;;12.59;93.90
3132;BME280;62090;52.330;9.104;2023-05-07T05:34:50;101378.72;;;12.36;94.13
3132;BME280;62090;52.330;9.104;2023-05-07T05:37:20;101378.53;;;12.30;94.19
3132;BME280;62090;52.330;9.104;2023-05-07T05:39:53;101366.81;;;12.38;94.74
3132;BME280;62090;52.330;9.104;2023-05-07T05:42:25;101403.13;;;12.56;94.13
3132;BME280;62090;52.330;9.104;2023-05-07T05:44:55;101359.66;;;12.56;93.70
3132;BME280;62090;52.330;9.104;2023-05-07T05:47:26;101395.25;;;12.82;92.65
3132;BME280;62090;52.330;9.104;2023-05-07T05:49:55;101384.56;;;12.63;93.25
3132;BME280;62090;52.330;9.104;2023-05-07T05:52:25;101351.59;;;12.41;93.46
3132;BME280;62090;52.330;9.104;2023-05-07T05:54:58;101376.75;;;12.59;93.99
3132;BME280;62090;52.330;9.104;2023-05-07T05:57:28;101399.91;;;12.63;93.98
3132;BME280;62090;52.330;9.104;2023-05-07T05:59:58;101394.53;;;12.54;94.40
3132;BME280;62090;52.330;9.104;2023-05-07T06:02:30;101396.19;;;12.52;94.08
3132;BME280;62090;52.330;9.104;2023-05-07T06:05:00;101404.34;;;12.70;93.31
3132;BME280;62090;52.330;9.104;2023-05-07T06:07:30;101406.63;;;12.60;93.77
3132;BME280;62090;52.330;9.104;2023-05-07T06:10:05;101383.84;;;12.38;94.48
3132;BME280;62090;52.330;9.104;2023-05-07T06:12:35;101409.00;;;12.54;94.63
3132;BME280;62090;52.330;9.104;2023-05-07T06:15:06;101405.56;;;12.53;95.49
3132;BME280;62090;52.330;9.104;2023-05-07T06:17:36;101411.03;;;12.65;94.63
3132;BME280;62090;52.330;9.104;2023-05-07T06:20:10;101411.13;;;12.70;94.28
3132;BME280;62090;52.330;9.104;2023-05-07T06:22:40;101402.81;;;12.77;93.88
3132;BME280;62090;52.330;9.104;2023-05-07T06:25:14;101407.34;;;12.87;92.82
3132;BME280;62090;52.330;9.104;2023-05-07T06:27:44;101412.56;;;12.92;92.46
3132;BME280;62090;52.330;9.104;2023-05-07T06:30:14;101333.69;;;12.41;92.27
3132;BME280;62090;52.330;9.104;2023-05-07T06:32:44;101400.19;;;12.74;91.66
3132;BME280;62090;52.330;9.104;2023-05-07T06:35:14;101424.31;;;12.85;92.56
3132;BME280;62090;52.330;9.104;2023-05-07T06:37:44;101400.72;;;12.62;92.26
3132;BME280;62090;52.330;9.104;2023-05-07T06:40:22;101400.31;;;12.79;92.23
3132;BME280;62090;52.330;9.104;2023-05-07T06:42:52;101409.84;;;12.84;91.74
3132;BME280;62090;52.330;9.104;2023-05-07T06:45:29;101377.25;;;12.77;91.56
3132;BME280;62090;52.330;9.104;2023-05-07T06:47:59;101417.78;;;12.96;91.40
3132;BME280;62090;52.330;9.104;2023-05-07T06:50:33;101431.16;;;13.16;90.89
3132;BME280;62090;52.330;9.104;2023-05-07T06:53:03;101432.03;;;13.18;90.43
3132;BME280;62090;52.330;9.104;2023-05-07T06:55:35;101436.13;;;13.11;89.70
3132;BME280;62090;52.330;9.104;2023-05-07T06:58:06;101426.88;;;13.17;90.10
3132;BME280;62090;52.330;9.104;2023-05-07T07:00:36;101409.41;;;13.02;89.92
3132;BME280;62090;52.330;9.104;2023-05-07T07:03:07;101433.84;;;13.22;89.98
3132;BME280;62090;52.330;9.104;2023-05-07T07:05:39;101398.19;;;12.97;90.03
3132;BME280;62090;52.330;9.104;2023-05-07T07:08:10;101427.63;;;13.13;90.03
3132;BME280;62090;52.330;9.104;2023-05-07T07:10:42;101445.16;;;13.30;89.53
3132;BME280;62090;52.330;9.104;2023-05-07T07:13:12;101433.84;;;13.22;89.02
3132;BME280;62090;52.330;9.104;2023-05-07T07:15:42;101379.69;;;12.73;89.17
3132;BME280;62090;52.330;9.104;2023-05-07T07:18:12;101450.75;;;13.17;89.12
3132;BME280;62090;52.330;9.104;2023-05-07T07:20:42;101456.66;;;13.13;89.12
3132;BME280;62090;52.330;9.104;2023-05-07T07:23:13;101456.28;;;12.99;90.28
3132;BME280;62090;52.330;9.104;2023-05-07T07:25:45;101455.56;;;13.05;90.17
3132;BME280;62090;52.330;9.104;2023-05-07T07:28:16;101424.38;;;12.87;90.17
3132;BME280;62090;52.330;9.104;2023-05-07T07:30:46;101462.31;;;13.03;89.81
3132;BME280;62090;52.330;9.104;2023-05-07T07:33:17;101453.66;;;12.98;90.36
3132;BME280;62090;52.330;9.104;2023-05-07T07:35:47;101459.81;;;13.04;89.68
3132;BME280;62090;52.330;9.104;2023-05-07T07:38:16;101441.81;;;13.01;90.06
3132;BME280;62090;52.330;9.104;2023-05-07T07:40:50;101362.31;;;12.61;89.42
3132;BME280;62090;52.330;9.104;2023-05-07T07:43:20;101404.34;;;12.70;89.96
3132;BME280;62090;52.330;9.104;2023-05-07T07:45:50;101439.88;;;12.93;89.69
3132;BME280;62090;52.330;9.104;2023-05-07T07:48:20;101441.63;;;12.94;90.10
3132;BME280;62090;52.330;9.104;2023-05-07T07:50:50;101454.09;;;12.82;89.85
3132;BME280;62090;52.330;9.104;2023-05-07T07:53:20;101448.16;;;12.83;89.89
3132;BME280;62090;52.330;9.104;2023-05-07T07:55:52;101424.34;;;12.54;89.67
3132;BME280;62090;52.330;9.104;2023-05-07T07:58:27;101428.19;;;12.69;89.76
3132;BME280;62090;52.330;9.104;2023-05-07T08:00:58;101460.31;;;12.91;89.54
3132;BME280;62090;52.330;9.104;2023-05-07T08:03:28;101461.72;;;12.80;89.22
3132;BME280;62090;52.330;9.104;2023-05-07T08:06:00;101440.06;;;12.67;89.49
3132;BME280;62090;52.330;9.104;2023-05-07T08:08:32;101468.84;;;12.92;89.67
3132;BME280;62090;52.330;9.104;2023-05-07T08:11:04;101462.75;;;12.87;89.29
3132;BME280;62090;52.330;9.104;2023-05-07T08:13:36;101474.75;;;12.89;89.18
3132;BME280;62090;52.330;9.104;2023-05-07T08:16:06;101476.81;;;13.02;89.08
3132;BME280;62090;52.330;9.104;2023-05-07T08:18:36;101453.63;;;12.96;88.48
3132;BME280;62090;52.330;9.104;2023-05-07T08:21:06;101448.38;;;12.92;88.28
3132;BME280;62090;52.330;9.104;2023-05-07T08:23:36;101435.47;;;12.87;88.07
3132;BME280;62090;52.330;9.104;2023-05-07T08:26:10;101472.44;;;13.30;88.04
3132;BME280;62090;52.330;9.104;2023-05-07T08:28:39;101186.63;;;11.57;87.37
3132;BME280;62090;52.330;9.104;2023-05-07T08:31:09;101441.50;;;13.21;87.44
3132;BME280;62090;52.330;9.104;2023-05-07T08:33:41;101467.69;;;13.45;87.16
3132;BME280;62090;52.330;9.104;2023-05-07T08:36:10;101466.13;;;13.51;87.26
3132;BME280;62090;52.330;9.104;2023-05-07T08:38:40;101456.63;;;13.46;86.51
3132;BME280;62090;52.330;9.104;2023-05-07T08:41:15;101451.09;;;13.29;86.81
3132;BME280;62090;52.330;9.104;2023-05-07T08:43:47;101384.69;;;13.02;86.52
3132;BME280;62090;52.330;9.104;2023-05-07T08:46:20;101472.66;;;13.75;86.17
3132;BME280;62090;52.330;9.104;2023-05-07T08:48:54;101481.53;;;13.89;85.78
3132;BME280;62090;52.330;9.104;2023-05-07T08:51:23;101484.16;;;13.92;84.31
3132;BME280;62090;52.330;9.104;2023-05-07T08:53:54;101485.06;;;13.94;83.45
3132;BME280;62090;52.330;9.104;2023-05-07T08:56:31;101491.31;;;14.07;84.29
3132;BME280;62090;52.330;9.104;2023-05-07T08:59:01;101469.97;;;14.06;83.44
3132;BME280;62090;52.330;9.104;2023-05-07T09:01:31;101457.03;;;14.00;82.86
3132;BME280;62090;52.330;9.104;2023-05-07T09:04:03;101442.38;;;13.94;82.69
3132;BME280;62090;52.330;9.104;2023-05-07T09:06:34;101474.38;;;14.13;82.52
3132;BME280;62090;52.330;9.104;2023-05-07T09:09:05;101447.97;;;14.17;82.83
3132;BME280;62090;52.330;9.104;2023-05-07T09:11:37;101367.72;;;13.78;82.56
3132;BME280;62090;52.330;9.104;2023-05-07T09:14:08;101459.34;;;14.30;82.13
3132;BME280;62090;52.330;9.104;2023-05-07T09:16:41;101372.84;;;13.78;81.77
3132;BME280;62090;52.330;9.104;2023-05-07T09:19:11;101484.50;;;14.07;81.85
3132;BME280;62090;52.330;9.104;2023-05-07T09:21:44;101466.56;;;14.07;81.80
3132;BME280;62090;52.330;9.104;2023-05-07T09:24:15;101451.31;;;14.13;81.69
3132;BME280;62090;52.330;9.104;2023-05-07T09:26:48;101474.88;;;14.36;81.02
3132;BME280;62090;52.330;9.104;2023-05-07T09:29:18;101433.97;;;14.02;81.12
3132;BME280;62090;52.330;9.104;2023-05-07T09:31:48;101476.75;;;14.42;80.48
3132;BME280;62090;52.330;9.104;2023-05-07T09:34:18;101476.09;;;14.52;80.16
3132;BME280;62090;52.330;9.104;2023-05-07T09:36:48;101364.69;;;13.95;79.76
3132;BME280;62090;52.330;9.104;2023-05-07T09:39:18;101466.94;;;14.64;79.03
3132;BME280;62090;52.330;9.104;2023-05-07T09:41:51;101406.59;;;14.38;77.99
3132;BME280;62090;52.330;9.104;2023-05-07T09:44:31;101448.44;;;14.82;78.08
3132;BME280;62090;52.330;9.104;2023-05-07T09:47:05;101477.13;;;15.08;77.44
3132;BME280;62090;52.330;9.104;2023-05-07T09:49:43;101473.81;;;15.13;77.19
3132;BME280;62090;52.330;9.104;2023-05-07T09:52:19;101462.75;;;15.16;76.98
3132;BME280;62090;52.330;9.104;2023-05-07T09:54:53;101474.19;;;15.33;76.16
3132;BME280;62090;52.330;9.104;2023-05-07T09:57:30;101455.50;;;15.43;75.43
3132;BME280;62090;52.330;9.104;2023-05-07T10:00:06;101472.78;;;15.52;75.21
3132;BME280;62090;52.330;9.104;2023-05-07T10:02:49;101484.84;;;15.56;74.89
3132;BME280;62090;52.330;9.104;2023-05-07T10:05:30;101472.78;;;15.52;74.37
3132;BME280;62090;52.330;9.104;2023-05-07T10:08:01;101466.06;;;15.60;75.59
3132;BME280;62090;52.330;9.104;2023-05-07T10:10:35;101480.13;;;15.83;74.77
3132;BME280;62090;52.330;9.104;2023-05-07T10:13:10;101483.53;;;15.82;74.29
3132;BME280;62090;52.330;9.104;2023-05-07T10:15:46;101475.19;;;15.95;75.04
3132;BME280;62090;52.330;9.104;2023-05-07T10:18:19;101483.94;;;16.10;74.84
3132;BME280;62090;52.330;9.104;2023-05-07T10:20:52;101489.22;;;16.20;73.47
3132;BME280;62090;52.330;9.104;2023-05-07T10:23:23;101483.25;;;16.21;73.61
3132;BME280;62090;52.330;9.104;2023-05-07T10:25:58;101462.34;;;15.98;73.16
3132;BME280;62090;52.330;9.104;2023-05-07T10:28:37;101489.53;;;16.44;73.86
3132;BME280;62090;52.330;9.104;2023-05-07T10:31:25;101486.97;;;16.43;72.52
3132;BME280;62090;52.330;9.104;2023-05-07T10:34:02;101486.88;;;16.37;72.01
3132;BME280;62090;52.330;9.104;2023-05-07T10:36:37;101502.34;;;16.40;71.72
3132;BME280;62090;52.330;9.104;2023-05-07T10:39:09;101499.72;;;16.37;72.34
3132;BME280;62090;52.330;9.104;2023-05-07T10:41:40;101496.69;;;16.65;72.45
3132;BME280;62090;52.330;9.104;2023-05-07T10:44:24;101512.94;;;16.63;71.02
3132;BME280;62090;52.330;9.104;2023-05-07T10:47:04;101493.00;;;16.46;70.77
3132;BME280;62090;52.330;9.104;2023-05-07T10:50:22;101499.84;;;16.46;71.54
3132;BME280;62090;52.330;9.104;2023-05-07T10:53:20;101505.94;;;16.53;71.44
3132;BME280;62090;52.330;9.104;2023-05-07T10:56:25;101496.66;;;16.62;71.29
3132;BME280;62090;52.330;9.104;2023-05-07T10:59:30;101490.69;;;16.65;70.22
3132;BME280;62090;52.330;9.104;2023-05-07T11:02:09;101491.28;;;16.47;71.60
3132;BME280;62090;52.330;9.104;2023-05-07T11:05:21;101469.59;;;16.27;71.50
3132;BME280;62090;52.330;9.104;2023-05-07T11:08:04;101483.69;;;16.58;71.37
3132;BME280;62090;52.330;9.104;2023-05-07T11:10:50;101492.34;;;16.60;71.08
3132;BME280;62090;52.330;9.104;2023-05-07T11:13:44;101477.59;;;16.50;71.41
3132;BME280;62090;52.330;9.104;2023-05-07T11:16:23;101482.28;;;16.81;71.87
3132;BME280;62090;52.330;9.104;2023-05-07T11:22:40;101492.75;;;16.98;69.98
3132;BME280;62090;52.330;9.104;2023-05-07T11:25:25;101478.81;;;16.79;69.59
3132;BME280;62090;52.330;9.104;2023-05-07T11:28:07;101382.00;;;16.15;69.45
3132;BME280;62090;52.330;9.104;2023-05-07T11:30:42;101483.63;;;16.52;70.30
3132;BME280;62090;52.330;9.104;2023-05-07T11:33:17;101486.13;;;16.47;71.58
3132;BME280;62090;52.330;9.104;2023-05-07T11:35:49;101504.34;;;16.59;70.27
3132;BME280;62090;52.330;9.104;2023-05-07T11:38:25;101503.53;;;16.66;71.34
3132;BME280;62090;52.330;9.104;2023-05-07T11:40:56;101509.63;;;16.70;71.28
3132;BME280;62090;52.330;9.104;2023-05-07T11:43:27;101505.34;;;16.70;71.39
3132;BME280;62090;52.330;9.104;2023-05-07T11:46:06;101476.44;;;16.96;71.05
3132;BME280;62090;52.330;9.104;2023-05-07T11:48:37;101493.72;;;17.09;69.89
3132;BME280;62090;52.330;9.104;2023-05-07T11:51:08;101509.22;;;17.15;69.77
3132;BME280;62090;52.330;9.104;2023-05-07T11:53:42;101497.91;;;16.99;70.04
3132;BME280;62090;52.330;9.104;2023-05-07T11:56:13;101510.16;;;17.24;70.23
3132;BME280;62090;52.330;9.104;2023-05-07T11:58:45;101487.84;;;17.25;69.85
3132;BME280;62090;52.330;9.104;2023-05-07T12:01:15;101489.69;;;17.37;69.22
3132;BME280;62090;52.330;9.104;2023-05-07T12:03:46;101508.72;;;17.52;69.01
3132;BME280;62090;52.330;9.104;2023-05-07T12:06:16;101502.03;;;17.71;68.87
3132;BME280;62090;52.330;9.104;2023-05-07T12:08:49;101476.91;;;17.49;67.67
3132;BME280;62090;52.330;9.104;2023-05-07T12:11:22;101514.00;;;17.64;67.26
3132;BME280;62090;52.330;9.104;2023-05-07T12:13:54;101513.84;;;17.49;67.95
3132;BME280;62090;52.330;9.104;2023-05-07T12:16:25;101472.50;;;17.36;67.67
3132;BME280;62090;52.330;9.104;2023-05-07T12:18:56;101501.13;;;17.64;68.70
3132;BME280;62090;52.330;9.104;2023-05-07T12:21:26;101502.91;;;17.78;67.84
3132;BME280;62090;52.330;9.104;2023-05-07T12:23:59;101470.94;;;17.57;67.13
3132;BME280;62090;52.330;9.104;2023-05-07T12:26:28;101484.81;;;17.71;67.50
3132;BME280;62090;52.330;9.104;2023-05-07T12:28:58;101489.19;;;17.79;68.31
3132;BME280;62090;52.330;9.104;2023-05-07T12:31:28;101493.63;;;18.01;68.32
3132;BME280;62090;52.330;9.104;2023-05-07T12:33:58;101490.94;;;17.87;69.33
3132;BME280;62090;52.330;9.104;2023-05-07T12:36:36;101463.28;;;17.62;68.87
3132;BME280;62090;52.330;9.104;2023-05-07T12:39:09;101475.97;;;17.39;69.30
3132;BME280;62090;52.330;9.104;2023-05-07T12:41:54;101489.50;;;17.17;69.93
3132;BME280;62090;52.330;9.104;2023-05-07T12:44:29;101455.72;;;16.85;70.76
3132;BME280;62090;52.330;9.104;2023-05-07T12:47:01;101494.81;;;17.32;71.61
3132;BME280;62090;52.330;9.104;2023-05-07T12:49:34;101489.63;;;17.27;70.48
3132;BME280;62090;52.330;9.104;2023-05-07T12:52:05;101494.81;;;17.35;71.00
3132;BME280;62090;52.330;9.104;2023-05-07T12:54:38;101496.59;;;17.39;70.42
3132;BME280;62090;52.330;9.104;2023-05-07T12:57:09;101492.41;;;17.53;69.39
3132;BME280;62090;52.330;9.104;2023-05-07T12:59:40;101491.88;;;17.97;66.75
3132;BME280;62090;52.330;9.104;2023-05-07T13:02:10;101508.00;;;17.68;68.65
3132;BME280;62090;52.330;9.104;2023-05-07T13:04:41;101488.06;;;17.51;69.25
3132;BME280;62090;52.330;9.104;2023-05-07T13:07:10;101468.19;;;17.36;68.56
3132;BME280;62090;52.330;9.104;2023-05-07T13:09:43;101492.97;;;17.17;68.71
3132;BME280;62090;52.330;9.104;2023-05-07T13:12:14;101492.16;;;17.23;69.87
3132;BME280;62090;52.330;9.104;2023-05-07T13:14:44;101483.66;;;17.36;69.27
3132;BME280;62090;52.330;9.104;2023-05-07T13:17:14;101474.38;;;17.55;69.58
3132;BME280;62090;52.330;9.104;2023-05-07T13:19:45;101463.97;;;17.43;69.38
3132;BME280;62090;52.330;9.104;2023-05-07T13:22:15;101485.59;;;17.61;69.59
3132;BME280;62090;52.330;9.104;2023-05-07T13:24:47;101458.38;;;18.04;66.31
3132;BME280;62090;52.330;9.104;2023-05-07T13:27:17;101414.94;;;17.32;67.70
3132;BME280;62090;52.330;9.104;2023-05-07T13:29:47;101434.03;;;17.58;67.12
3132;BME280;62090;52.330;9.104;2023-05-07T13:32:17;101464.06;;;17.55;67.05